PWSweather.com
Personal Weather Stations
Station Observations
KOHAVON11
Long Road Station, Avon, OH 44011

Long Road StationAvon, OH 44011

Lat: 41.437, Lon: -82.0477

Elevation: 686

Station Type: Davis Vantage Pro2

http://www.avon-weather.com

High Low Average
Temperature 87.6°F30.9°F 73.1°F22.8°F 79.7°F26.5°F
Dew Point 75.7°F24.3°F 66.7°F19.3°F 71.0°F21.7°F
Winds 10.0 mph S16.1 mph S Calm Calm 1.6 mph 2.6 mph
Wind Gusts 17.0 mph27.4 mph -- 6.6 mph10.6 mph
Humidity 87% 55% 76%
Pressure 29.92 in1013.20 in 29.85 in1010.80 in -
Precipitation 8.03 in204.00 in - -
Hour Temp Dew Point Humidity Winds Wind Gusts Pressure Precip Precip Rate Daily Precip Total
12:02 AM 76.6°F24.8°C 71.3°F21.8°C 84% 1.0 mph S1.6 kmh S 9.0 mph14.5 kmh 29.89 in1012.2 mb 0.00 in0.0 mm 0.00 in0.0 mm 0.00 in0.0 mm
12:07 AM 76.6°F24.8°C 71.3°F21.8°C 84% 4.0 mph S6.4 kmh S 10.0 mph16.1 kmh 29.89 in1012.2 mb 0.00 in0.0 mm 0.00 in0.0 mm 0.00 in0.0 mm
12:12 AM 76.7°F24.8°C 71.4°F21.9°C 84% 6.0 mph S9.7 kmh S 10.0 mph16.1 kmh 29.88 in1011.9 mb 0.00 in0.0 mm 0.00 in0.0 mm 0.00 in0.0 mm
12:17 AM 76.7°F24.8°C 71.4°F21.9°C 84% 4.0 mph S6.4 kmh S 10.0 mph16.1 kmh 29.89 in1012.2 mb 0.00 in0.0 mm 0.00 in0.0 mm 0.00 in0.0 mm
12:22 AM 76.8°F24.9°C 71.5°F21.9°C 84% 9.0 mph S14.5 kmh S 10.0 mph16.1 kmh 29.89 in1012.2 mb 0.00 in0.0 mm 0.00 in0.0 mm 0.00 in0.0 mm
12:27 AM 76.8°F24.9°C 71.5°F21.9°C 84% 3.0 mph SSW4.8 kmh SSW 11.0 mph17.7 kmh 29.89 in1012.2 mb 0.00 in0.0 mm 0.00 in0.0 mm 0.00 in0.0 mm
12:32 AM 76.7°F24.8°C 71.4°F21.9°C 84% 8.0 mph S12.9 kmh S 11.0 mph17.7 kmh 29.89 in1012.2 mb 0.00 in0.0 mm 0.00 in0.0 mm 0.00 in0.0 mm
12:37 AM 76.8°F24.9°C 71.5°F21.9°C 84% 1.0 mph SSE1.6 kmh SSE 11.0 mph17.7 kmh 29.88 in1011.9 mb 0.00 in0.0 mm 0.00 in0.0 mm 0.00 in0.0 mm
12:42 AM 76.7°F24.8°C 71.4°F21.9°C 84% 1.0 mph S1.6 kmh S 11.0 mph17.7 kmh 29.89 in1012.2 mb 0.00 in0.0 mm 0.00 in0.0 mm 0.00 in0.0 mm
12:47 AM 76.7°F24.8°C 71.4°F21.9°C 84% 2.0 mph S3.2 kmh S 9.0 mph14.5 kmh 29.88 in1011.9 mb 0.00 in0.0 mm 0.00 in0.0 mm 0.00 in0.0 mm
12:52 AM 76.7°F24.8°C 71.4°F21.9°C 84% 1.0 mph SSW1.6 kmh SSW 11.0 mph17.7 kmh 29.88 in1011.9 mb 0.00 in0.0 mm 0.00 in0.0 mm 0.00 in0.0 mm
12:57 AM 76.6°F24.8°C 71.3°F21.8°C 84% 4.0 mph S6.4 kmh S 11.0 mph17.7 kmh 29.88 in1011.9 mb 0.00 in0.0 mm 0.00 in0.0 mm 0.00 in0.0 mm
01:02 AM 76.5°F24.7°C 71.2°F21.8°C 84% 5.0 mph SSW8.0 kmh SSW 11.0 mph17.7 kmh 29.88 in1011.9 mb 0.00 in0.0 mm 0.00 in0.0 mm 0.00 in0.0 mm
01:07 AM 76.5°F24.7°C 71.2°F21.8°C 84% 2.0 mph S3.2 kmh S 11.0 mph17.7 kmh 29.88 in1011.9 mb 0.00 in0.0 mm 0.00 in0.0 mm 0.00 in0.0 mm
01:12 AM 76.4°F24.7°C 71.1°F21.7°C 84% 5.0 mph S8.0 kmh S 11.0 mph17.7 kmh 29.89 in1012.2 mb 0.00 in0.0 mm 0.00 in0.0 mm 0.00 in0.0 mm
01:17 AM 76.3°F24.6°C 71.0°F21.7°C 84% 4.0 mph S6.4 kmh S 11.0 mph17.7 kmh 29.89 in1012.2 mb 0.00 in0.0 mm 0.00 in0.0 mm 0.00 in0.0 mm
01:22 AM 76.2°F24.6°C 70.9°F21.6°C 84% 5.0 mph S8.0 kmh S 8.0 mph12.9 kmh 29.89 in1012.2 mb 0.00 in0.0 mm 0.00 in0.0 mm 0.00 in0.0 mm
01:27 AM 76.1°F24.5°C 70.8°F21.6°C 84% 4.0 mph S6.4 kmh S 8.0 mph12.9 kmh 29.89 in1012.2 mb 0.00 in0.0 mm 0.00 in0.0 mm 0.00 in0.0 mm
01:32 AM 76.1°F24.5°C 70.4°F21.3°C 83% 1.0 mph SSW1.6 kmh SSW 8.0 mph12.9 kmh 29.89 in1012.2 mb 0.00 in0.0 mm 0.00 in0.0 mm 0.00 in0.0 mm
01:37 AM 76.1°F24.5°C 70.4°F21.3°C 83% 4.0 mph SSW6.4 kmh SSW 8.0 mph12.9 kmh 29.89 in1012.2 mb 0.00 in0.0 mm 0.00 in0.0 mm 0.00 in0.0 mm
01:42 AM 76.0°F24.4°C 70.3°F21.3°C 83% 6.0 mph SSW9.7 kmh SSW 8.0 mph12.9 kmh 29.89 in1012.2 mb 0.00 in0.0 mm 0.00 in0.0 mm 0.00 in0.0 mm
01:47 AM 76.0°F24.4°C 70.3°F21.3°C 83% 3.0 mph SW4.8 kmh SW 9.0 mph14.5 kmh 29.88 in1011.9 mb 0.00 in0.0 mm 0.00 in0.0 mm 0.00 in0.0 mm
01:52 AM 76.0°F24.4°C 70.3°F21.3°C 83% 7.0 mph S11.3 kmh S 9.0 mph14.5 kmh 29.88 in1011.9 mb 0.00 in0.0 mm 0.00 in0.0 mm 0.00 in0.0 mm
01:57 AM 76.0°F24.4°C 70.3°F21.3°C 83% 4.0 mph SSW6.4 kmh SSW 9.0 mph14.5 kmh 29.89 in1012.2 mb 0.00 in0.0 mm 0.00 in0.0 mm 0.00 in0.0 mm
02:02 AM 76.0°F24.4°C 70.3°F21.3°C 83% Calm Calm 9.0 mph14.5 kmh 29.89 in1012.2 mb 0.00 in0.0 mm 0.00 in0.0 mm 0.00 in0.0 mm
02:07 AM 76.0°F24.4°C 70.3°F21.3°C 83% 2.0 mph S3.2 kmh S 11.0 mph17.7 kmh 29.88 in1011.9 mb 0.00 in0.0 mm 0.00 in0.0 mm 0.00 in0.0 mm
02:12 AM 76.0°F24.4°C 70.3°F21.3°C 83% 3.0 mph S4.8 kmh S 11.0 mph17.7 kmh 29.88 in1011.9 mb 0.00 in0.0 mm 0.00 in0.0 mm 0.00 in0.0 mm
02:17 AM 76.0°F24.4°C 70.3°F21.3°C 83% 5.0 mph SW8.0 kmh SW 11.0 mph17.7 kmh 29.88 in1011.9 mb 0.00 in0.0 mm 0.00 in0.0 mm 0.00 in0.0 mm
02:22 AM 76.0°F24.4°C 70.3°F21.3°C 83% 6.0 mph S9.7 kmh S 11.0 mph17.7 kmh 29.89 in1012.2 mb 0.00 in0.0 mm 0.00 in0.0 mm 0.00 in0.0 mm
02:27 AM 76.0°F24.4°C 70.3°F21.3°C 83% 6.0 mph S9.7 kmh S 9.0 mph14.5 kmh 29.88 in1011.9 mb 0.00 in0.0 mm 0.00 in0.0 mm 0.00 in0.0 mm
02:32 AM 76.0°F24.4°C 70.3°F21.3°C 83% 3.0 mph S4.8 kmh S 9.0 mph14.5 kmh 29.88 in1011.9 mb 0.00 in0.0 mm 0.00 in0.0 mm 0.00 in0.0 mm
02:37 AM 76.0°F24.4°C 70.3°F21.3°C 83% 3.0 mph S4.8 kmh S 9.0 mph14.5 kmh 29.88 in1011.9 mb 0.00 in0.0 mm 0.00 in0.0 mm 0.00 in0.0 mm
02:42 AM 76.0°F24.4°C 70.3°F21.3°C 83% Calm Calm 9.0 mph14.5 kmh 29.88 in1011.9 mb 0.00 in0.0 mm 0.00 in0.0 mm 0.00 in0.0 mm
02:47 AM 76.0°F24.4°C 70.3°F21.3°C 83% 4.0 mph S6.4 kmh S 8.0 mph12.9 kmh 29.88 in1011.9 mb 0.00 in0.0 mm 0.00 in0.0 mm 0.00 in0.0 mm
02:52 AM 75.9°F24.4°C 70.2°F21.2°C 83% Calm Calm 9.0 mph14.5 kmh 29.88 in1011.9 mb 0.00 in0.0 mm 0.00 in0.0 mm 0.00 in0.0 mm
02:57 AM 75.9°F24.4°C 70.2°F21.2°C 83% 7.0 mph S11.3 kmh S 9.0 mph14.5 kmh 29.87 in1011.5 mb 0.00 in0.0 mm 0.00 in0.0 mm 0.00 in0.0 mm
03:02 AM 76.0°F24.4°C 70.3°F21.3°C 83% 2.0 mph SW3.2 kmh SW 9.0 mph14.5 kmh 29.87 in1011.5 mb 0.00 in0.0 mm 0.00 in0.0 mm 0.00 in0.0 mm
03:07 AM 76.0°F24.4°C 70.3°F21.3°C 83% Calm Calm 9.0 mph14.5 kmh 29.87 in1011.5 mb 0.00 in0.0 mm 0.00 in0.0 mm 0.00 in0.0 mm
03:12 AM 76.0°F24.4°C 70.3°F21.3°C 83% 5.0 mph SSW8.0 kmh SSW 8.0 mph12.9 kmh 29.87 in1011.5 mb 0.00 in0.0 mm 0.00 in0.0 mm 0.00 in0.0 mm
03:17 AM 76.0°F24.4°C 70.3°F21.3°C 83% 7.0 mph S11.3 kmh S 8.0 mph12.9 kmh 29.87 in1011.5 mb 0.00 in0.0 mm 0.00 in0.0 mm 0.00 in0.0 mm
03:22 AM 76.1°F24.5°C 70.4°F21.3°C 83% Calm Calm 8.0 mph12.9 kmh 29.87 in1011.5 mb 0.00 in0.0 mm 0.00 in0.0 mm 0.00 in0.0 mm
03:27 AM 76.1°F24.5°C 70.4°F21.3°C 83% 4.0 mph S6.4 kmh S 8.0 mph12.9 kmh 29.87 in1011.5 mb 0.00 in0.0 mm 0.00 in0.0 mm 0.00 in0.0 mm
03:32 AM 76.1°F24.5°C 70.4°F21.3°C 83% 3.0 mph SW4.8 kmh SW 8.0 mph12.9 kmh 29.87 in1011.5 mb 0.00 in0.0 mm 0.00 in0.0 mm 0.00 in0.0 mm
03:37 AM 76.2°F24.6°C 70.5°F21.4°C 83% 6.0 mph SSW9.7 kmh SSW 8.0 mph12.9 kmh 29.86 in1011.2 mb 0.00 in0.0 mm 0.00 in0.0 mm 0.00 in0.0 mm
03:42 AM 76.2°F24.6°C 70.5°F21.4°C 83% 5.0 mph S8.0 kmh S 8.0 mph12.9 kmh 29.86 in1011.2 mb 0.00 in0.0 mm 0.00 in0.0 mm 0.00 in0.0 mm
03:47 AM 76.2°F24.6°C 70.5°F21.4°C 83% 3.0 mph S4.8 kmh S 8.0 mph12.9 kmh 29.86 in1011.2 mb 0.00 in0.0 mm 0.00 in0.0 mm 0.00 in0.0 mm
03:52 AM 76.3°F24.6°C 70.6°F21.4°C 83% Calm Calm 10.0 mph16.1 kmh 29.86 in1011.2 mb 0.00 in0.0 mm 0.00 in0.0 mm 0.00 in0.0 mm
03:57 AM 76.3°F24.6°C 70.6°F21.4°C 83% 10.0 mph S16.1 kmh S 10.0 mph16.1 kmh 29.87 in1011.5 mb 0.00 in0.0 mm 0.00 in0.0 mm 0.00 in0.0 mm
04:02 AM 76.3°F24.6°C 71.0°F21.7°C 84% Calm Calm 10.0 mph16.1 kmh 29.86 in1011.2 mb 0.00 in0.0 mm 0.00 in0.0 mm 0.00 in0.0 mm
04:07 AM 76.4°F24.7°C 71.1°F21.7°C 84% 5.0 mph S8.0 kmh S 10.0 mph16.1 kmh 29.86 in1011.2 mb 0.00 in0.0 mm 0.00 in0.0 mm 0.00 in0.0 mm
04:12 AM 76.4°F24.7°C 71.1°F21.7°C 84% Calm Calm 8.0 mph12.9 kmh 29.87 in1011.5 mb 0.00 in0.0 mm 0.00 in0.0 mm 0.00 in0.0 mm
04:17 AM 76.4°F24.7°C 71.1°F21.7°C 84% Calm Calm 8.0 mph12.9 kmh 29.87 in1011.5 mb 0.00 in0.0 mm 0.00 in0.0 mm 0.00 in0.0 mm
04:22 AM 76.4°F24.7°C 71.1°F21.7°C 84% 1.0 mph SSW1.6 kmh SSW 6.0 mph9.7 kmh 29.87 in1011.5 mb 0.00 in0.0 mm 0.00 in0.0 mm 0.00 in0.0 mm
04:27 AM 76.4°F24.7°C 71.1°F21.7°C 84% 1.0 mph S1.6 kmh S 6.0 mph9.7 kmh 29.87 in1011.5 mb 0.00 in0.0 mm 0.00 in0.0 mm 0.00 in0.0 mm
04:32 AM 76.3°F24.6°C 71.0°F21.7°C 84% 7.0 mph SSW11.3 kmh SSW 7.0 mph11.3 kmh 29.88 in1011.9 mb 0.00 in0.0 mm 0.00 in0.0 mm 0.00 in0.0 mm
04:37 AM 76.3°F24.6°C 71.0°F21.7°C 84% 2.0 mph SW3.2 kmh SW 7.0 mph11.3 kmh 29.87 in1011.5 mb 0.00 in0.0 mm 0.00 in0.0 mm 0.00 in0.0 mm
04:42 AM 76.3°F24.6°C 71.0°F21.7°C 84% Calm Calm 7.0 mph11.3 kmh 29.87 in1011.5 mb 0.00 in0.0 mm 0.00 in0.0 mm 0.00 in0.0 mm
04:47 AM 76.3°F24.6°C 71.0°F21.7°C 84% Calm Calm 7.0 mph11.3 kmh 29.87 in1011.5 mb 0.00 in0.0 mm 0.00 in0.0 mm 0.00 in0.0 mm
04:52 AM 76.4°F24.7°C 71.4°F21.9°C 85% Calm Calm 7.0 mph11.3 kmh 29.87 in1011.5 mb 0.00 in0.0 mm 0.00 in0.0 mm 0.00 in0.0 mm
04:57 AM 76.4°F24.7°C 71.4°F21.9°C 85% Calm Calm 7.0 mph11.3 kmh 29.87 in1011.5 mb 0.00 in0.0 mm 0.00 in0.0 mm 0.00 in0.0 mm
05:02 AM 76.4°F24.7°C 71.4°F21.9°C 85% Calm Calm 1.0 mph1.6 kmh 29.87 in1011.5 mb 0.00 in0.0 mm 0.00 in0.0 mm 0.00 in0.0 mm
05:07 AM 76.4°F24.7°C 71.4°F21.9°C 85% Calm Calm 6.0 mph9.7 kmh 29.87 in1011.5 mb 0.00 in0.0 mm 0.00 in0.0 mm 0.00 in0.0 mm
05:12 AM 76.4°F24.7°C 71.4°F21.9°C 85% Calm Calm 6.0 mph9.7 kmh 29.87 in1011.5 mb 0.00 in0.0 mm 0.00 in0.0 mm 0.00 in0.0 mm
05:17 AM 76.5°F24.7°C 71.5°F21.9°C 85% 5.0 mph S8.0 kmh S 7.0 mph11.3 kmh 29.87 in1011.5 mb 0.00 in0.0 mm 0.00 in0.0 mm 0.00 in0.0 mm
05:22 AM 76.5°F24.7°C 71.5°F21.9°C 85% 2.0 mph SSW3.2 kmh SSW 7.0 mph11.3 kmh 29.86 in1011.2 mb 0.00 in0.0 mm 0.00 in0.0 mm 0.00 in0.0 mm
05:27 AM 76.5°F24.7°C 71.5°F21.9°C 85% Calm Calm 7.0 mph11.3 kmh 29.86 in1011.2 mb 0.00 in0.0 mm 0.00 in0.0 mm 0.00 in0.0 mm
05:32 AM 76.5°F24.7°C 71.5°F21.9°C 85% Calm Calm 7.0 mph11.3 kmh 29.87 in1011.5 mb 0.00 in0.0 mm 0.00 in0.0 mm 0.00 in0.0 mm
05:37 AM 76.5°F24.7°C 71.5°F21.9°C 85% Calm Calm 1.0 mph1.6 kmh 29.87 in1011.5 mb 0.00 in0.0 mm 0.00 in0.0 mm 0.00 in0.0 mm
05:42 AM 76.4°F24.7°C 71.4°F21.9°C 85% Calm Calm -- 29.87 in1011.5 mb 0.00 in0.0 mm 0.00 in0.0 mm 0.00 in0.0 mm
05:47 AM 76.4°F24.7°C 71.4°F21.9°C 85% Calm Calm 6.0 mph9.7 kmh 29.87 in1011.5 mb 0.00 in0.0 mm 0.00 in0.0 mm 0.00 in0.0 mm
05:52 AM 76.4°F24.7°C 71.8°F22.1°C 86% Calm Calm 6.0 mph9.7 kmh 29.87 in1011.5 mb 0.00 in0.0 mm 0.00 in0.0 mm 0.00 in0.0 mm
05:57 AM 76.4°F24.7°C 71.8°F22.1°C 86% Calm Calm 6.0 mph9.7 kmh 29.86 in1011.2 mb 0.00 in0.0 mm 0.00 in0.0 mm 0.00 in0.0 mm
06:02 AM 76.4°F24.7°C 71.8°F22.1°C 86% 1.0 mph SSW1.6 kmh SSW 6.0 mph9.7 kmh 29.86 in1011.2 mb 0.00 in0.0 mm 0.00 in0.0 mm 0.00 in0.0 mm
06:07 AM 76.4°F24.7°C 71.8°F22.1°C 86% 7.0 mph S11.3 kmh S 7.0 mph11.3 kmh 29.86 in1011.2 mb 0.00 in0.0 mm 0.00 in0.0 mm 0.00 in0.0 mm
06:12 AM 76.5°F24.7°C 71.9°F22.2°C 86% 4.0 mph SW6.4 kmh SW 8.0 mph12.9 kmh 29.86 in1011.2 mb 0.00 in0.0 mm 0.00 in0.0 mm 0.00 in0.0 mm
06:17 AM 76.4°F24.7°C 71.8°F22.1°C 86% 4.0 mph S6.4 kmh S 8.0 mph12.9 kmh 29.85 in1010.8 mb 0.00 in0.0 mm 0.00 in0.0 mm 0.00 in0.0 mm
06:22 AM 76.4°F24.7°C 71.8°F22.1°C 86% 3.0 mph SSW4.8 kmh SSW 8.0 mph12.9 kmh 29.85 in1010.8 mb 0.00 in0.0 mm 0.00 in0.0 mm 0.00 in0.0 mm
06:27 AM 76.3°F24.6°C 71.7°F22.1°C 86% Calm Calm 8.0 mph12.9 kmh 29.85 in1010.8 mb 0.00 in0.0 mm 0.00 in0.0 mm 0.00 in0.0 mm
06:32 AM 76.3°F24.6°C 71.7°F22.1°C 86% Calm Calm 6.0 mph9.7 kmh 29.85 in1010.8 mb 0.00 in0.0 mm 0.00 in0.0 mm 0.00 in0.0 mm
06:37 AM 76.3°F24.6°C 71.7°F22.1°C 86% Calm Calm 7.0 mph11.3 kmh 29.85 in1010.8 mb 0.00 in0.0 mm 0.00 in0.0 mm 0.00 in0.0 mm
06:42 AM 76.3°F24.6°C 71.7°F22.1°C 86% Calm Calm -- 29.86 in1011.2 mb 0.00 in0.0 mm 0.00 in0.0 mm 0.00 in0.0 mm
06:47 AM 76.2°F24.6°C 71.6°F22.0°C 86% Calm Calm 1.0 mph1.6 kmh 29.85 in1010.8 mb 0.00 in0.0 mm 0.00 in0.0 mm 0.00 in0.0 mm
06:52 AM 76.2°F24.6°C 71.9°F22.2°C 87% Calm Calm 6.0 mph9.7 kmh 29.86 in1011.2 mb 0.00 in0.0 mm 0.00 in0.0 mm 0.00 in0.0 mm
06:57 AM 76.2°F24.6°C 71.9°F22.2°C 87% Calm Calm 1.0 mph1.6 kmh 29.86 in1011.2 mb 0.00 in0.0 mm 0.00 in0.0 mm 0.00 in0.0 mm
07:02 AM 76.2°F24.6°C 71.9°F22.2°C 87% Calm Calm 1.0 mph1.6 kmh 29.87 in1011.5 mb 0.00 in0.0 mm 0.00 in0.0 mm 0.00 in0.0 mm
07:07 AM 76.2°F24.6°C 71.9°F22.2°C 87% Calm Calm 2.0 mph3.2 kmh 29.87 in1011.5 mb 0.00 in0.0 mm 0.00 in0.0 mm 0.00 in0.0 mm
07:12 AM 76.2°F24.6°C 71.9°F22.2°C 87% Calm Calm 5.0 mph8.0 kmh 29.87 in1011.5 mb 0.00 in0.0 mm 0.00 in0.0 mm 0.00 in0.0 mm
07:17 AM 76.3°F24.6°C 72.0°F22.2°C 87% Calm Calm 6.0 mph9.7 kmh 29.87 in1011.5 mb 0.00 in0.0 mm 0.00 in0.0 mm 0.00 in0.0 mm
07:22 AM 76.3°F24.6°C 72.0°F22.2°C 87% Calm Calm -- 29.87 in1011.5 mb 0.00 in0.0 mm 0.00 in0.0 mm 0.00 in0.0 mm
07:27 AM 76.3°F24.6°C 72.0°F22.2°C 87% Calm Calm 1.0 mph1.6 kmh 29.87 in1011.5 mb 0.00 in0.0 mm 0.00 in0.0 mm 0.00 in0.0 mm
07:32 AM 76.4°F24.7°C 72.1°F22.3°C 87% Calm Calm 6.0 mph9.7 kmh 29.87 in1011.5 mb 0.00 in0.0 mm 0.00 in0.0 mm 0.00 in0.0 mm
07:37 AM 76.6°F24.8°C 72.3°F22.4°C 87% 1.0 mph WSW1.6 kmh WSW 4.0 mph6.4 kmh 29.87 in1011.5 mb 0.00 in0.0 mm 0.00 in0.0 mm 0.00 in0.0 mm
07:42 AM 76.7°F24.8°C 72.4°F22.4°C 87% 1.0 mph SW1.6 kmh SW 4.0 mph6.4 kmh 29.87 in1011.5 mb 0.00 in0.0 mm 0.00 in0.0 mm 0.00 in0.0 mm
07:47 AM 76.9°F24.9°C 72.6°F22.6°C 87% Calm Calm 6.0 mph9.7 kmh 29.88 in1011.9 mb 0.00 in0.0 mm 0.00 in0.0 mm 0.00 in0.0 mm
07:52 AM 77.1°F25.1°C 72.8°F22.7°C 87% Calm Calm 6.0 mph9.7 kmh 29.88 in1011.9 mb 0.00 in0.0 mm 0.00 in0.0 mm 0.00 in0.0 mm
07:57 AM 77.3°F25.2°C 73.0°F22.8°C 87% 1.0 mph SSW1.6 kmh SSW 6.0 mph9.7 kmh 29.88 in1011.9 mb 0.00 in0.0 mm 0.00 in0.0 mm 0.00 in0.0 mm
08:02 AM 77.5°F25.3°C 73.2°F22.9°C 87% Calm Calm 9.0 mph14.5 kmh 29.88 in1011.9 mb 0.00 in0.0 mm 0.00 in0.0 mm 0.00 in0.0 mm
08:07 AM 77.9°F25.5°C 73.6°F23.1°C 87% 2.0 mph W3.2 kmh W 9.0 mph14.5 kmh 29.88 in1011.9 mb 0.00 in0.0 mm 0.00 in0.0 mm 0.00 in0.0 mm
08:12 AM 78.6°F25.9°C 73.9°F23.3°C 86% 1.0 mph WSW1.6 kmh WSW 9.0 mph14.5 kmh 29.88 in1011.9 mb 0.00 in0.0 mm 0.00 in0.0 mm 0.00 in0.0 mm
08:17 AM 78.7°F25.9°C 74.0°F23.3°C 86% 7.0 mph W11.3 kmh W 7.0 mph11.3 kmh 29.88 in1011.9 mb 0.00 in0.0 mm 0.00 in0.0 mm 0.00 in0.0 mm
08:22 AM 79.0°F26.1°C 74.0°F23.3°C 85% Calm Calm 7.0 mph11.3 kmh 29.88 in1011.9 mb 0.00 in0.0 mm 0.00 in0.0 mm 0.00 in0.0 mm
08:37 AM 79.8°F26.6°C 74.0°F23.3°C 83% 2.0 mph W3.2 kmh W 7.0 mph11.3 kmh 29.89 in1012.2 mb 0.00 in0.0 mm 0.00 in0.0 mm 0.00 in0.0 mm
08:42 AM 79.9°F26.6°C 74.1°F23.4°C 83% Calm Calm 6.0 mph9.7 kmh 29.89 in1012.2 mb 0.00 in0.0 mm 0.00 in0.0 mm 0.00 in0.0 mm
08:47 AM 80.0°F26.7°C 74.2°F23.4°C 83% 1.0 mph WSW1.6 kmh WSW 6.0 mph9.7 kmh 29.89 in1012.2 mb 0.00 in0.0 mm 0.00 in0.0 mm 0.00 in0.0 mm
08:52 AM 81.4°F27.4°C 75.2°F24.0°C 82% 3.0 mph WSW4.8 kmh WSW 6.0 mph9.7 kmh 29.89 in1012.2 mb 0.00 in0.0 mm 0.00 in0.0 mm 0.00 in0.0 mm
08:57 AM 81.5°F27.5°C 74.9°F23.8°C 81% Calm Calm 6.0 mph9.7 kmh 29.89 in1012.2 mb 0.00 in0.0 mm 0.00 in0.0 mm 0.00 in0.0 mm
09:02 AM 81.9°F27.7°C 75.7°F24.3°C 82% 4.0 mph WSW6.4 kmh WSW 4.0 mph6.4 kmh 29.89 in1012.2 mb 0.00 in0.0 mm 0.00 in0.0 mm 0.00 in0.0 mm
09:07 AM 81.6°F27.6°C 74.6°F23.7°C 80% 1.0 mph WSW1.6 kmh WSW 8.0 mph12.9 kmh 29.88 in1011.9 mb 0.00 in0.0 mm 0.00 in0.0 mm 0.00 in0.0 mm
09:12 AM 82.2°F27.9°C 75.2°F24.0°C 80% Calm Calm 5.0 mph8.0 kmh 29.88 in1011.9 mb 0.00 in0.0 mm 0.00 in0.0 mm 0.00 in0.0 mm
09:17 AM 82.4°F28.0°C 74.2°F23.4°C 77% Calm Calm 1.0 mph1.6 kmh 29.88 in1011.9 mb 0.00 in0.0 mm 0.00 in0.0 mm 0.00 in0.0 mm
09:22 AM 81.7°F27.6°C 73.6°F23.1°C 77% Calm Calm 5.0 mph8.0 kmh 29.88 in1011.9 mb 0.00 in0.0 mm 0.00 in0.0 mm 0.00 in0.0 mm
09:27 AM 81.2°F27.3°C 73.5°F23.1°C 78% 3.0 mph WSW4.8 kmh WSW 6.0 mph9.7 kmh 29.88 in1011.9 mb 0.00 in0.0 mm 0.00 in0.0 mm 0.00 in0.0 mm
09:32 AM 81.0°F27.2°C 73.7°F23.2°C 79% 4.0 mph WSW6.4 kmh WSW 6.0 mph9.7 kmh 29.88 in1011.9 mb 0.00 in0.0 mm 0.00 in0.0 mm 0.00 in0.0 mm
09:37 AM 80.8°F27.1°C 73.5°F23.1°C 79% Calm Calm 8.0 mph12.9 kmh 29.88 in1011.9 mb 0.00 in0.0 mm 0.00 in0.0 mm 0.00 in0.0 mm
09:42 AM 80.8°F27.1°C 73.1°F22.8°C 78% 6.0 mph WSW9.7 kmh WSW 8.0 mph12.9 kmh 29.88 in1011.9 mb 0.00 in0.0 mm 0.00 in0.0 mm 0.00 in0.0 mm
09:47 AM 81.0°F27.2°C 72.9°F22.7°C 77% Calm Calm 8.0 mph12.9 kmh 29.88 in1011.9 mb 0.00 in0.0 mm 0.00 in0.0 mm 0.00 in0.0 mm
09:52 AM 81.0°F27.2°C 72.5°F22.5°C 76% 1.0 mph WSW1.6 kmh WSW 9.0 mph14.5 kmh 29.88 in1011.9 mb 0.00 in0.0 mm 0.00 in0.0 mm 0.00 in0.0 mm
09:57 AM 80.9°F27.2°C 72.4°F22.4°C 76% Calm Calm 9.0 mph14.5 kmh 29.88 in1011.9 mb 0.00 in0.0 mm 0.00 in0.0 mm 0.00 in0.0 mm
10:02 AM 81.0°F27.2°C 72.1°F22.3°C 75% Calm Calm 11.0 mph17.7 kmh 29.89 in1012.2 mb 0.00 in0.0 mm 0.00 in0.0 mm 0.00 in0.0 mm
10:07 AM 81.2°F27.3°C 72.7°F22.6°C 76% 9.0 mph W14.5 kmh W 11.0 mph17.7 kmh 29.89 in1012.2 mb 0.00 in0.0 mm 0.00 in0.0 mm 0.00 in0.0 mm
10:12 AM 81.0°F27.2°C 71.7°F22.1°C 74% 3.0 mph W4.8 kmh W 14.0 mph22.5 kmh 29.89 in1012.2 mb 0.00 in0.0 mm 0.00 in0.0 mm 0.00 in0.0 mm
10:17 AM 81.4°F27.4°C 71.6°F22.0°C 73% Calm Calm 14.0 mph22.5 kmh 29.89 in1012.2 mb 0.00 in0.0 mm 0.00 in0.0 mm 0.00 in0.0 mm
10:22 AM 81.4°F27.4°C 71.2°F21.8°C 72% 1.0 mph W1.6 kmh W 14.0 mph22.5 kmh 29.89 in1012.2 mb 0.00 in0.0 mm 0.00 in0.0 mm 0.00 in0.0 mm
10:27 AM 81.3°F27.4°C 70.3°F21.3°C 70% 9.0 mph NW14.5 kmh NW 15.0 mph24.1 kmh 29.90 in1012.5 mb 0.00 in0.0 mm 0.00 in0.0 mm 0.00 in0.0 mm
10:32 AM 81.4°F27.4°C 70.4°F21.3°C 70% 7.0 mph NW11.3 kmh NW 15.0 mph24.1 kmh 29.90 in1012.5 mb 0.00 in0.0 mm 0.00 in0.0 mm 0.00 in0.0 mm
10:37 AM 81.5°F27.5°C 70.9°F21.6°C 71% 2.0 mph WNW3.2 kmh WNW 15.0 mph24.1 kmh 29.90 in1012.5 mb 0.00 in0.0 mm 0.00 in0.0 mm 0.00 in0.0 mm
10:42 AM 81.9°F27.7°C 70.4°F21.3°C 69% 7.0 mph WNW11.3 kmh WNW 15.0 mph24.1 kmh 29.90 in1012.5 mb 0.00 in0.0 mm 0.00 in0.0 mm 0.00 in0.0 mm
10:47 AM 81.4°F27.4°C 69.9°F21.1°C 69% Calm Calm 10.0 mph16.1 kmh 29.90 in1012.5 mb 0.00 in0.0 mm 0.00 in0.0 mm 0.00 in0.0 mm
10:52 AM 80.8°F27.1°C 69.8°F21.0°C 70% 4.0 mph W6.4 kmh W 17.0 mph27.4 kmh 29.90 in1012.5 mb 0.00 in0.0 mm 0.00 in0.0 mm 0.00 in0.0 mm
10:57 AM 80.5°F26.9°C 70.4°F21.3°C 72% Calm Calm 17.0 mph27.4 kmh 29.90 in1012.5 mb 0.00 in0.0 mm 0.00 in0.0 mm 0.00 in0.0 mm
11:02 AM 80.4°F26.9°C 70.3°F21.3°C 72% 6.0 mph WNW9.7 kmh WNW 17.0 mph27.4 kmh 29.90 in1012.5 mb 0.00 in0.0 mm 0.00 in0.0 mm 0.00 in0.0 mm
11:07 AM 80.3°F26.8°C 70.2°F21.2°C 72% 7.0 mph WSW11.3 kmh WSW 17.0 mph27.4 kmh 29.91 in1012.9 mb 0.00 in0.0 mm 0.00 in0.0 mm 0.00 in0.0 mm
11:12 AM 80.3°F26.8°C 70.2°F21.2°C 72% 5.0 mph W8.0 kmh W 16.0 mph25.7 kmh 29.91 in1012.9 mb 0.00 in0.0 mm 0.00 in0.0 mm 0.00 in0.0 mm
11:17 AM 80.5°F26.9°C 70.4°F21.3°C 72% 4.0 mph W6.4 kmh W 16.0 mph25.7 kmh 29.91 in1012.9 mb 0.00 in0.0 mm 0.00 in0.0 mm 0.00 in0.0 mm
11:22 AM 80.6°F27.0°C 70.5°F21.4°C 72% 7.0 mph WSW11.3 kmh WSW 13.0 mph20.9 kmh 29.91 in1012.9 mb 0.00 in0.0 mm 0.00 in0.0 mm 0.00 in0.0 mm
11:27 AM 81.3°F27.4°C 72.0°F22.2°C 74% Calm Calm 13.0 mph20.9 kmh 29.91 in1012.9 mb 0.00 in0.0 mm 0.00 in0.0 mm 0.00 in0.0 mm
11:32 AM 81.4°F27.4°C 69.9°F21.1°C 69% Calm Calm 12.0 mph19.3 kmh 29.91 in1012.9 mb 0.00 in0.0 mm 0.00 in0.0 mm 0.00 in0.0 mm
11:37 AM 80.9°F27.2°C 69.5°F20.8°C 69% 3.0 mph W4.8 kmh W 14.0 mph22.5 kmh 29.91 in1012.9 mb 0.00 in0.0 mm 0.00 in0.0 mm 0.00 in0.0 mm
11:42 AM 80.9°F27.2°C 70.3°F21.3°C 71% 4.0 mph W6.4 kmh W 14.0 mph22.5 kmh 29.92 in1013.2 mb 0.00 in0.0 mm 0.00 in0.0 mm 0.00 in0.0 mm
11:47 AM 80.7°F27.1°C 69.7°F20.9°C 70% Calm Calm 14.0 mph22.5 kmh 29.91 in1012.9 mb 0.00 in0.0 mm 0.00 in0.0 mm 0.00 in0.0 mm
11:52 AM 80.6°F27.0°C 70.0°F21.1°C 71% 6.0 mph W9.7 kmh W 14.0 mph22.5 kmh 29.91 in1012.9 mb 0.00 in0.0 mm 0.00 in0.0 mm 0.00 in0.0 mm
11:57 AM 80.5°F26.9°C 69.9°F21.1°C 71% Calm Calm 8.0 mph12.9 kmh 29.91 in1012.9 mb 0.00 in0.0 mm 0.00 in0.0 mm 0.00 in0.0 mm
12:02 PM 80.5°F26.9°C 69.5°F20.8°C 70% Calm Calm 8.0 mph12.9 kmh 29.91 in1012.9 mb 0.00 in0.0 mm 0.00 in0.0 mm 0.00 in0.0 mm
12:07 PM 80.7°F27.1°C 70.6°F21.4°C 72% Calm Calm 8.0 mph12.9 kmh 29.91 in1012.9 mb 0.00 in0.0 mm 0.00 in0.0 mm 0.00 in0.0 mm
12:12 PM 80.7°F27.1°C 69.7°F20.9°C 70% Calm Calm 8.0 mph12.9 kmh 29.91 in1012.9 mb 0.00 in0.0 mm 0.00 in0.0 mm 0.00 in0.0 mm
12:17 PM 80.8°F27.1°C 70.7°F21.5°C 72% Calm Calm 5.0 mph8.0 kmh 29.91 in1012.9 mb 0.00 in0.0 mm 0.00 in0.0 mm 0.00 in0.0 mm
12:22 PM 81.0°F27.2°C 70.4°F21.3°C 71% Calm Calm 5.0 mph8.0 kmh 29.91 in1012.9 mb 0.00 in0.0 mm 0.00 in0.0 mm 0.00 in0.0 mm
12:27 PM 81.5°F27.5°C 70.9°F21.6°C 71% Calm Calm 4.0 mph6.4 kmh 29.90 in1012.5 mb 0.00 in0.0 mm 0.00 in0.0 mm 0.00 in0.0 mm
12:32 PM 81.8°F27.7°C 71.6°F22.0°C 72% Calm Calm -- 29.91 in1012.9 mb 0.00 in0.0 mm 0.00 in0.0 mm 0.00 in0.0 mm
12:37 PM 82.4°F28.0°C 70.4°F21.3°C 68% Calm Calm 5.0 mph8.0 kmh 29.91 in1012.9 mb 0.00 in0.0 mm 0.00 in0.0 mm 0.00 in0.0 mm
12:42 PM 83.2°F28.4°C 71.2°F21.8°C 68% Calm Calm 5.0 mph8.0 kmh 29.91 in1012.9 mb 0.00 in0.0 mm 0.00 in0.0 mm 0.00 in0.0 mm
12:47 PM 84.6°F29.2°C 72.1°F22.3°C 67% 1.0 mph W1.6 kmh W 5.0 mph8.0 kmh 29.90 in1012.5 mb 0.00 in0.0 mm 0.00 in0.0 mm 0.00 in0.0 mm
12:52 PM 85.0°F29.4°C 71.5°F21.9°C 65% 1.0 mph WSW1.6 kmh WSW 3.0 mph4.8 kmh 29.90 in1012.5 mb 0.00 in0.0 mm 0.00 in0.0 mm 0.00 in0.0 mm
12:57 PM 85.2°F29.6°C 72.2°F22.3°C 66% 3.0 mph WSW4.8 kmh WSW 5.0 mph8.0 kmh 29.90 in1012.5 mb 0.00 in0.0 mm 0.00 in0.0 mm 0.00 in0.0 mm
01:02 PM 85.5°F29.7°C 73.4°F23.0°C 68% Calm Calm 6.0 mph9.7 kmh 29.90 in1012.5 mb 0.00 in0.0 mm 0.00 in0.0 mm 0.00 in0.0 mm
01:07 PM 85.4°F29.7°C 72.4°F22.4°C 66% Calm Calm 6.0 mph9.7 kmh 29.90 in1012.5 mb 0.00 in0.0 mm 0.00 in0.0 mm 0.00 in0.0 mm
01:12 PM 85.5°F29.7°C 72.5°F22.5°C 66% 1.0 mph W1.6 kmh W 7.0 mph11.3 kmh 29.90 in1012.5 mb 0.00 in0.0 mm 0.00 in0.0 mm 0.00 in0.0 mm
01:17 PM 85.0°F29.4°C 72.0°F22.2°C 66% Calm Calm 1.0 mph1.6 kmh 29.90 in1012.5 mb 0.00 in0.0 mm 0.00 in0.0 mm 0.00 in0.0 mm
01:22 PM 84.9°F29.4°C 72.8°F22.7°C 68% Calm Calm 8.0 mph12.9 kmh 29.90 in1012.5 mb 0.00 in0.0 mm 0.00 in0.0 mm 0.00 in0.0 mm
01:27 PM 84.8°F29.3°C 71.8°F22.1°C 66% Calm Calm 11.0 mph17.7 kmh 29.90 in1012.5 mb 0.00 in0.0 mm 0.00 in0.0 mm 0.00 in0.0 mm
01:32 PM 85.7°F29.8°C 72.7°F22.6°C 66% Calm Calm 6.0 mph9.7 kmh 29.90 in1012.5 mb 0.00 in0.0 mm 0.00 in0.0 mm 0.00 in0.0 mm
01:37 PM 84.9°F29.4°C 71.9°F22.2°C 66% Calm Calm 10.0 mph16.1 kmh 29.90 in1012.5 mb 0.00 in0.0 mm 0.00 in0.0 mm 0.00 in0.0 mm
01:42 PM 84.3°F29.1°C 71.8°F22.1°C 67% 3.0 mph WNW4.8 kmh WNW 3.0 mph4.8 kmh 29.90 in1012.5 mb 0.00 in0.0 mm 0.00 in0.0 mm 0.00 in0.0 mm
01:47 PM 83.6°F28.7°C 70.2°F21.2°C 65% 8.0 mph WNW12.9 kmh WNW 10.0 mph16.1 kmh 29.90 in1012.5 mb 0.00 in0.0 mm 0.00 in0.0 mm 0.00 in0.0 mm
01:52 PM 83.0°F28.3°C 70.1°F21.2°C 66% 6.0 mph NW9.7 kmh NW 10.0 mph16.1 kmh 29.90 in1012.5 mb 0.00 in0.0 mm 0.00 in0.0 mm 0.00 in0.0 mm
01:57 PM 82.9°F28.3°C 70.9°F21.6°C 68% 3.0 mph WNW4.8 kmh WNW 11.0 mph17.7 kmh 29.90 in1012.5 mb 0.00 in0.0 mm 0.00 in0.0 mm 0.00 in0.0 mm
02:02 PM 82.6°F28.1°C 70.6°F21.4°C 68% Calm Calm 2.0 mph3.2 kmh 29.90 in1012.5 mb 0.00 in0.0 mm 0.00 in0.0 mm 0.00 in0.0 mm
02:07 PM 82.5°F28.1°C 71.4°F21.9°C 70% Calm Calm 4.0 mph6.4 kmh 29.90 in1012.5 mb 0.00 in0.0 mm 0.00 in0.0 mm 0.00 in0.0 mm
02:12 PM 82.4°F28.0°C 71.3°F21.8°C 70% Calm Calm 8.0 mph12.9 kmh 29.91 in1012.9 mb 0.00 in0.0 mm 0.00 in0.0 mm 0.00 in0.0 mm
02:17 PM 81.9°F27.7°C 71.3°F21.8°C 71% Calm Calm 1.0 mph1.6 kmh 29.90 in1012.5 mb 0.00 in0.0 mm 0.00 in0.0 mm 0.00 in0.0 mm
02:22 PM 82.0°F27.8°C 71.4°F21.9°C 71% Calm Calm 5.0 mph8.0 kmh 29.90 in1012.5 mb 0.00 in0.0 mm 0.00 in0.0 mm 0.00 in0.0 mm
02:27 PM 82.1°F27.8°C 71.0°F21.7°C 70% Calm Calm 6.0 mph9.7 kmh 29.90 in1012.5 mb 0.00 in0.0 mm 0.00 in0.0 mm 0.00 in0.0 mm
02:32 PM 82.3°F27.9°C 71.7°F22.1°C 71% Calm Calm 1.0 mph1.6 kmh 29.90 in1012.5 mb 0.00 in0.0 mm 0.00 in0.0 mm 0.00 in0.0 mm
02:37 PM 82.7°F28.2°C 72.0°F22.2°C 71% Calm Calm 7.0 mph11.3 kmh 29.89 in1012.2 mb 0.00 in0.0 mm 0.00 in0.0 mm 0.00 in0.0 mm
02:42 PM 82.5°F28.1°C 72.3°F22.4°C 72% Calm Calm 7.0 mph11.3 kmh 29.89 in1012.2 mb 0.00 in0.0 mm 0.00 in0.0 mm 0.00 in0.0 mm
02:47 PM 82.7°F28.2°C 72.0°F22.2°C 71% Calm Calm 5.0 mph8.0 kmh 29.89 in1012.2 mb 0.00 in0.0 mm 0.00 in0.0 mm 0.00 in0.0 mm
02:52 PM 83.1°F28.4°C 73.3°F22.9°C 73% Calm Calm 3.0 mph4.8 kmh 29.89 in1012.2 mb 0.00 in0.0 mm 0.00 in0.0 mm 0.00 in0.0 mm
02:57 PM 83.3°F28.5°C 73.0°F22.8°C 72% Calm Calm 1.0 mph1.6 kmh 29.89 in1012.2 mb 0.00 in0.0 mm 0.00 in0.0 mm 0.00 in0.0 mm
03:02 PM 83.9°F28.8°C 74.5°F23.6°C 74% 3.0 mph W4.8 kmh W 3.0 mph4.8 kmh 29.89 in1012.2 mb 0.00 in0.0 mm 0.00 in0.0 mm 0.00 in0.0 mm
03:07 PM 84.7°F29.3°C 72.6°F22.6°C 68% Calm Calm 6.0 mph9.7 kmh 29.89 in1012.2 mb 0.00 in0.0 mm 0.00 in0.0 mm 0.00 in0.0 mm
03:12 PM 84.7°F29.3°C 72.2°F22.3°C 67% Calm Calm 4.0 mph6.4 kmh 29.88 in1011.9 mb 0.00 in0.0 mm 0.00 in0.0 mm 0.00 in0.0 mm
03:17 PM 84.9°F29.4°C 72.4°F22.4°C 67% 1.0 mph NW1.6 kmh NW 5.0 mph8.0 kmh 29.88 in1011.9 mb 0.00 in0.0 mm 0.00 in0.0 mm 0.00 in0.0 mm
03:22 PM 85.5°F29.7°C 72.5°F22.5°C 66% Calm Calm 6.0 mph9.7 kmh 29.88 in1011.9 mb 0.00 in0.0 mm 0.00 in0.0 mm 0.00 in0.0 mm
03:27 PM 85.5°F29.7°C 72.0°F22.2°C 65% Calm Calm 7.0 mph11.3 kmh 29.88 in1011.9 mb 0.00 in0.0 mm 0.00 in0.0 mm 0.00 in0.0 mm
03:32 PM 85.8°F29.9°C 73.2°F22.9°C 67% Calm Calm 5.0 mph8.0 kmh 29.88 in1011.9 mb 0.00 in0.0 mm 0.00 in0.0 mm 0.00 in0.0 mm
03:37 PM 86.5°F30.3°C 73.4°F23.0°C 66% Calm Calm 4.0 mph6.4 kmh 29.88 in1011.9 mb 0.00 in0.0 mm 0.00 in0.0 mm 0.00 in0.0 mm
03:42 PM 86.7°F30.4°C 73.1°F22.8°C 65% Calm Calm 5.0 mph8.0 kmh 29.88 in1011.9 mb 0.00 in0.0 mm 0.00 in0.0 mm 0.00 in0.0 mm
03:47 PM 87.6°F30.9°C 75.4°F24.1°C 68% Calm Calm 7.0 mph11.3 kmh 29.87 in1011.5 mb 0.00 in0.0 mm 0.00 in0.0 mm 0.00 in0.0 mm
03:52 PM 87.6°F30.9°C 73.0°F22.8°C 63% 1.0 mph SW1.6 kmh SW 7.0 mph11.3 kmh 29.87 in1011.5 mb 0.00 in0.0 mm 0.00 in0.0 mm 0.00 in0.0 mm
03:57 PM 86.8°F30.4°C 72.7°F22.6°C 64% Calm Calm 8.0 mph12.9 kmh 29.87 in1011.5 mb 0.00 in0.0 mm 0.00 in0.0 mm 0.00 in0.0 mm
04:02 PM 86.0°F30.0°C 72.9°F22.7°C 66% Calm Calm 6.0 mph9.7 kmh 29.87 in1011.5 mb 0.00 in0.0 mm 0.00 in0.0 mm 0.00 in0.0 mm
04:07 PM 86.5°F30.3°C 73.4°F23.0°C 66% Calm Calm 3.0 mph4.8 kmh 29.87 in1011.5 mb 0.00 in0.0 mm 0.00 in0.0 mm 0.00 in0.0 mm
04:12 PM 85.7°F29.8°C 73.1°F22.8°C 67% Calm Calm 1.0 mph1.6 kmh 29.87 in1011.5 mb 0.00 in0.0 mm 0.00 in0.0 mm 0.00 in0.0 mm
04:17 PM 85.7°F29.8°C 73.1°F22.8°C 67% Calm Calm 4.0 mph6.4 kmh 29.87 in1011.5 mb 0.00 in0.0 mm 0.00 in0.0 mm 0.00 in0.0 mm
04:22 PM 85.6°F29.8°C 72.1°F22.3°C 65% Calm Calm 3.0 mph4.8 kmh 29.87 in1011.5 mb 0.00 in0.0 mm 0.00 in0.0 mm 0.00 in0.0 mm
04:27 PM 85.7°F29.8°C 73.6°F23.1°C 68% Calm Calm 10.0 mph16.1 kmh 29.87 in1011.5 mb 0.00 in0.0 mm 0.00 in0.0 mm 0.00 in0.0 mm
04:32 PM 85.7°F29.8°C 72.7°F22.6°C 66% Calm Calm 10.0 mph16.1 kmh 29.87 in1011.5 mb 0.00 in0.0 mm 0.00 in0.0 mm 0.00 in0.0 mm
04:37 PM 85.4°F29.7°C 72.4°F22.4°C 66% Calm Calm 10.0 mph16.1 kmh 29.87 in1011.5 mb 0.00 in0.0 mm 0.00 in0.0 mm 0.00 in0.0 mm
04:42 PM 85.9°F29.9°C 72.4°F22.4°C 65% Calm Calm 10.0 mph16.1 kmh 29.87 in1011.5 mb 0.00 in0.0 mm 0.00 in0.0 mm 0.00 in0.0 mm
04:47 PM 85.5°F29.7°C 71.5°F21.9°C 64% 2.0 mph WNW3.2 kmh WNW 8.0 mph12.9 kmh 29.87 in1011.5 mb 0.00 in0.0 mm 0.00 in0.0 mm 0.00 in0.0 mm
04:52 PM 85.1°F29.5°C 71.6°F22.0°C 65% 2.0 mph NW3.2 kmh NW 12.0 mph19.3 kmh 29.87 in1011.5 mb 0.00 in0.0 mm 0.00 in0.0 mm 0.00 in0.0 mm
04:57 PM 85.1°F29.5°C 70.7°F21.5°C 63% 6.0 mph W9.7 kmh W 12.0 mph19.3 kmh 29.87 in1011.5 mb 0.00 in0.0 mm 0.00 in0.0 mm 0.00 in0.0 mm
05:02 PM 85.4°F29.7°C 71.0°F21.7°C 63% 3.0 mph W4.8 kmh W 12.0 mph19.3 kmh 29.86 in1011.2 mb 0.00 in0.0 mm 0.00 in0.0 mm 0.00 in0.0 mm
05:07 PM 85.5°F29.7°C 71.0°F21.7°C 63% 7.0 mph WNW11.3 kmh WNW 12.0 mph19.3 kmh 29.86 in1011.2 mb 0.00 in0.0 mm 0.00 in0.0 mm 0.00 in0.0 mm
05:12 PM 85.2°F29.6°C 70.3°F21.3°C 62% Calm Calm 11.0 mph17.7 kmh 29.86 in1011.2 mb 0.00 in0.0 mm 0.00 in0.0 mm 0.00 in0.0 mm
05:17 PM 85.2°F29.6°C 68.8°F20.4°C 59% Calm Calm 11.0 mph17.7 kmh 29.86 in1011.2 mb 0.00 in0.0 mm 0.00 in0.0 mm 0.00 in0.0 mm
05:22 PM 85.1°F29.5°C 69.7°F20.9°C 61% 3.0 mph W4.8 kmh W 10.0 mph16.1 kmh 29.86 in1011.2 mb 0.00 in0.0 mm 0.00 in0.0 mm 0.00 in0.0 mm
05:27 PM 84.8°F29.3°C 68.4°F20.2°C 59% 3.0 mph W4.8 kmh W 11.0 mph17.7 kmh 29.86 in1011.2 mb 0.00 in0.0 mm 0.00 in0.0 mm 0.00 in0.0 mm
05:32 PM 84.8°F29.3°C 69.4°F20.8°C 61% 4.0 mph WSW6.4 kmh WSW 12.0 mph19.3 kmh 29.86 in1011.2 mb 0.00 in0.0 mm 0.00 in0.0 mm 0.00 in0.0 mm
05:37 PM 84.9°F29.4°C 69.5°F20.8°C 61% 9.0 mph W14.5 kmh W 12.0 mph19.3 kmh 29.86 in1011.2 mb 0.00 in0.0 mm 0.00 in0.0 mm 0.00 in0.0 mm
05:42 PM 85.0°F29.4°C 70.1°F21.2°C 62% 5.0 mph WSW8.0 kmh WSW 12.0 mph19.3 kmh 29.86 in1011.2 mb 0.00 in0.0 mm 0.00 in0.0 mm 0.00 in0.0 mm
05:47 PM 85.1°F29.5°C 70.2°F21.2°C 62% Calm Calm 12.0 mph19.3 kmh 29.86 in1011.2 mb 0.00 in0.0 mm 0.00 in0.0 mm 0.00 in0.0 mm
05:52 PM 84.9°F29.4°C 69.0°F20.6°C 60% Calm Calm 10.0 mph16.1 kmh 29.86 in1011.2 mb 0.00 in0.0 mm 0.00 in0.0 mm 0.00 in0.0 mm
05:57 PM 84.8°F29.3°C 68.9°F20.5°C 60% Calm Calm 10.0 mph16.1 kmh 29.86 in1011.2 mb 0.00 in0.0 mm 0.00 in0.0 mm 0.00 in0.0 mm
06:02 PM 85.0°F29.4°C 69.1°F20.6°C 60% Calm Calm -- 29.86 in1011.2 mb 0.00 in0.0 mm 0.00 in0.0 mm 0.00 in0.0 mm
06:07 PM 85.2°F29.6°C 67.7°F19.8°C 57% 2.0 mph WNW3.2 kmh WNW 8.0 mph12.9 kmh 29.86 in1011.2 mb 0.00 in0.0 mm 0.00 in0.0 mm 0.00 in0.0 mm
06:12 PM 85.3°F29.6°C 66.7°F19.3°C 55% Calm Calm 9.0 mph14.5 kmh 29.86 in1011.2 mb 0.00 in0.0 mm 0.00 in0.0 mm 0.00 in0.0 mm
06:17 PM 85.6°F29.8°C 68.1°F20.1°C 57% Calm Calm -- 29.86 in1011.2 mb 0.00 in0.0 mm 0.00 in0.0 mm 0.00 in0.0 mm
06:22 PM 85.8°F29.9°C 68.3°F20.2°C 57% 1.0 mph W1.6 kmh W 3.0 mph4.8 kmh 29.86 in1011.2 mb 0.00 in0.0 mm 0.00 in0.0 mm 0.00 in0.0 mm
06:27 PM 85.5°F29.7°C 68.0°F20.0°C 57% 4.0 mph W6.4 kmh W 12.0 mph19.3 kmh 29.86 in1011.2 mb 0.00 in0.0 mm 0.00 in0.0 mm 0.00 in0.0 mm
06:32 PM 85.4°F29.7°C 69.0°F20.6°C 59% 4.0 mph W6.4 kmh W 12.0 mph19.3 kmh 29.86 in1011.2 mb 0.00 in0.0 mm 0.00 in0.0 mm 0.00 in0.0 mm
06:37 PM 85.2°F29.6°C 67.7°F19.8°C 57% 3.0 mph W4.8 kmh W 12.0 mph19.3 kmh 29.86 in1011.2 mb 0.00 in0.0 mm 0.00 in0.0 mm 0.00 in0.0 mm
06:42 PM 85.3°F29.6°C 68.3°F20.2°C 58% 1.0 mph W1.6 kmh W 12.0 mph19.3 kmh 29.86 in1011.2 mb 0.00 in0.0 mm 0.00 in0.0 mm 0.00 in0.0 mm
06:47 PM 85.2°F29.6°C 67.7°F19.8°C 57% 1.0 mph W1.6 kmh W 7.0 mph11.3 kmh 29.86 in1011.2 mb 0.00 in0.0 mm 0.00 in0.0 mm 0.00 in0.0 mm
06:52 PM 85.1°F29.5°C 68.7°F20.4°C 59% 2.0 mph W3.2 kmh W 7.0 mph11.3 kmh 29.86 in1011.2 mb 0.00 in0.0 mm 0.00 in0.0 mm 0.00 in0.0 mm
06:57 PM 85.1°F29.5°C 69.2°F20.7°C 60% Calm Calm 7.0 mph11.3 kmh 29.86 in1011.2 mb 0.00 in0.0 mm 0.00 in0.0 mm 0.00 in0.0 mm
07:02 PM 85.0°F29.4°C 69.1°F20.6°C 60% 2.0 mph WNW3.2 kmh WNW 10.0 mph16.1 kmh 29.86 in1011.2 mb 0.00 in0.0 mm 0.00 in0.0 mm 0.00 in0.0 mm
07:07 PM 85.0°F29.4°C 69.1°F20.6°C 60% 2.0 mph WSW3.2 kmh WSW 10.0 mph16.1 kmh 29.86 in1011.2 mb 0.00 in0.0 mm 0.00 in0.0 mm 0.00 in0.0 mm
07:12 PM 84.8°F29.3°C 68.4°F20.2°C 59% 3.0 mph W4.8 kmh W 10.0 mph16.1 kmh 29.86 in1011.2 mb 0.00 in0.0 mm 0.00 in0.0 mm 0.00 in0.0 mm
07:17 PM 84.7°F29.3°C 68.8°F20.4°C 60% 2.0 mph W3.2 kmh W 10.0 mph16.1 kmh 29.86 in1011.2 mb 0.00 in0.0 mm 0.00 in0.0 mm 0.00 in0.0 mm
07:22 PM 84.6°F29.2°C 68.7°F20.4°C 60% Calm Calm 8.0 mph12.9 kmh 29.87 in1011.5 mb 0.00 in0.0 mm 0.00 in0.0 mm 0.00 in0.0 mm
07:27 PM 84.5°F29.2°C 69.1°F20.6°C 61% Calm Calm 8.0 mph12.9 kmh 29.86 in1011.2 mb 0.00 in0.0 mm 0.00 in0.0 mm 0.00 in0.0 mm
07:32 PM 84.3°F29.1°C 68.9°F20.5°C 61% Calm Calm 6.0 mph9.7 kmh 29.87 in1011.5 mb 0.00 in0.0 mm 0.00 in0.0 mm 0.00 in0.0 mm
07:37 PM 84.0°F28.9°C 69.2°F20.7°C 62% Calm Calm 6.0 mph9.7 kmh 29.87 in1011.5 mb 0.00 in0.0 mm 0.00 in0.0 mm 0.01 in0.3 mm
07:42 PM 82.9°F28.3°C 69.5°F20.8°C 65% Calm Calm 6.0 mph9.7 kmh 29.87 in1011.5 mb 0.24 in6.1 mm 2.88 in73.2 mm 0.03 in0.8 mm
07:47 PM 82.3°F27.9°C 69.4°F20.8°C 66% Calm Calm 8.0 mph12.9 kmh 29.87 in1011.5 mb 0.34 in8.6 mm 1.20 in30.5 mm 0.06 in1.5 mm
07:52 PM 82.1°F27.8°C 69.7°F20.9°C 67% 2.0 mph W3.2 kmh W 8.0 mph12.9 kmh 29.87 in1011.5 mb 0.26 in6.6 mm 0.00 in0.0 mm 0.08 in2.0 mm
07:57 PM 82.1°F27.8°C 70.2°F21.2°C 68% Calm Calm 5.0 mph8.0 kmh 29.87 in1011.5 mb 0.34 in8.6 mm 0.96 in24.4 mm 0.10 in2.5 mm
08:02 PM 81.3°F27.4°C 70.3°F21.3°C 70% 2.0 mph WNW3.2 kmh WNW 2.0 mph3.2 kmh 29.87 in1011.5 mb 0.40 in10.2 mm 0.07 in1.8 mm 0.13 in3.3 mm
08:07 PM 80.9°F27.2°C 70.3°F21.3°C 71% Calm Calm -- 29.87 in1011.5 mb 0.36 in9.1 mm 0.00 in0.0 mm 0.15 in3.8 mm
08:12 PM 80.5°F26.9°C 69.9°F21.1°C 71% Calm Calm 5.0 mph8.0 kmh 29.88 in1011.9 mb 0.25 in6.4 mm 0.00 in0.0 mm 0.17 in4.3 mm
08:17 PM 80.6°F27.0°C 70.0°F21.1°C 71% Calm Calm 3.0 mph4.8 kmh 29.88 in1011.9 mb 0.20 in5.1 mm 0.00 in0.0 mm 0.19 in4.8 mm
08:22 PM 80.4°F26.9°C 69.8°F21.0°C 71% Calm Calm 5.0 mph8.0 kmh 29.88 in1011.9 mb 0.27 in6.9 mm 0.84 in21.3 mm 0.21 in5.3 mm
08:27 PM 80.1°F26.7°C 70.0°F21.1°C 72% 6.0 mph W9.7 kmh W 6.0 mph9.7 kmh 29.88 in1011.9 mb 0.23 in5.8 mm 0.00 in0.0 mm 0.23 in5.8 mm
08:32 PM 80.1°F26.7°C 70.0°F21.1°C 72% Calm Calm -- 29.88 in1011.9 mb 0.35 in8.9 mm 1.44 in36.6 mm 0.26 in6.6 mm
08:37 PM 79.6°F26.4°C 69.9°F21.1°C 73% Calm Calm 2.0 mph3.2 kmh 29.89 in1012.2 mb 0.35 in8.9 mm 0.00 in0.0 mm 0.29 in7.4 mm
08:42 PM 79.1°F26.2°C 70.3°F21.3°C 75% Calm Calm -- 29.89 in1012.2 mb 0.34 in8.6 mm 0.00 in0.0 mm 0.31 in7.9 mm
08:47 PM 78.6°F25.9°C 70.2°F21.2°C 76% Calm Calm -- 29.89 in1012.2 mb 0.41 in10.4 mm 0.84 in21.3 mm 0.35 in8.9 mm
08:52 PM 78.3°F25.7°C 70.3°F21.3°C 77% Calm Calm -- 29.89 in1012.2 mb 0.38 in9.7 mm 0.00 in0.0 mm 0.38 in9.7 mm
08:57 PM 78.5°F25.8°C 70.1°F21.2°C 76% Calm Calm -- 29.89 in1012.2 mb 0.30 in7.6 mm 0.00 in0.0 mm 0.40 in10.2 mm
09:02 PM 78.5°F25.8°C 70.1°F21.2°C 76% Calm Calm -- 29.89 in1012.2 mb 0.29 in7.4 mm 0.00 in0.0 mm 0.43 in10.9 mm
09:07 PM 78.8°F26.0°C 70.0°F21.1°C 75% Calm Calm -- 29.90 in1012.5 mb 0.50 in12.7 mm 2.52 in64.0 mm 0.46 in11.7 mm
09:12 PM 78.6°F25.9°C 69.8°F21.0°C 75% Calm Calm -- 29.90 in1012.5 mb 0.35 in8.9 mm 0.00 in0.0 mm 0.51 in13.0 mm
09:17 PM 78.1°F25.6°C 69.7°F20.9°C 76% Calm Calm -- 29.90 in1012.5 mb 0.22 in5.6 mm 0.00 in0.0 mm 0.53 in13.5 mm
09:22 PM 77.9°F25.5°C 69.9°F21.1°C 77% Calm Calm -- 29.89 in1012.2 mb 0.37 in9.4 mm 1.80 in45.7 mm 0.56 in14.2 mm
09:27 PM 77.5°F25.3°C 69.9°F21.1°C 78% Calm Calm -- 29.90 in1012.5 mb 0.35 in8.9 mm 0.00 in0.0 mm 0.58 in14.7 mm
09:32 PM 77.0°F25.0°C 70.2°F21.2°C 80% Calm Calm -- 29.90 in1012.5 mb 0.24 in6.1 mm 0.00 in0.0 mm 0.61 in15.5 mm
09:37 PM 76.5°F24.7°C 70.1°F21.2°C 81% Calm Calm -- 29.90 in1012.5 mb 0.19 in4.8 mm 0.00 in0.0 mm 0.63 in16.0 mm
09:42 PM 76.1°F24.5°C 69.7°F20.9°C 81% Calm Calm -- 29.90 in1012.5 mb 0.23 in5.8 mm 0.48 in12.2 mm 0.64 in16.3 mm
09:47 PM 75.9°F24.4°C 69.9°F21.1°C 82% Calm Calm -- 29.90 in1012.5 mb 0.16 in4.1 mm 0.00 in0.0 mm 0.66 in16.8 mm
09:52 PM 75.8°F24.3°C 69.8°F21.0°C 82% Calm Calm -- 29.90 in1012.5 mb 0.07 in1.8 mm 0.00 in0.0 mm 0.66 in16.8 mm
09:57 PM 75.4°F24.1°C 69.4°F20.8°C 82% Calm Calm -- 29.90 in1012.5 mb 0.04 in1.0 mm 0.00 in0.0 mm 0.66 in16.8 mm
10:02 PM 74.9°F23.8°C 69.2°F20.7°C 83% Calm Calm -- 29.90 in1012.5 mb 0.00 in0.0 mm 0.00 in0.0 mm 0.66 in16.8 mm
10:07 PM 74.7°F23.7°C 69.1°F20.6°C 83% Calm Calm -- 29.90 in1012.5 mb 0.00 in0.0 mm 0.00 in0.0 mm 0.66 in16.8 mm
10:12 PM 74.6°F23.7°C 69.0°F20.6°C 83% Calm Calm -- 29.91 in1012.9 mb 0.00 in0.0 mm 0.00 in0.0 mm 0.66 in16.8 mm
10:17 PM 74.3°F23.5°C 69.0°F20.6°C 84% Calm Calm -- 29.91 in1012.9 mb 0.00 in0.0 mm 0.00 in0.0 mm 0.66 in16.8 mm
10:22 PM 74.2°F23.4°C 68.9°F20.5°C 84% Calm Calm -- 29.91 in1012.9 mb 0.00 in0.0 mm 0.00 in0.0 mm 0.66 in16.8 mm
10:27 PM 74.2°F23.4°C 69.3°F20.7°C 85% Calm Calm -- 29.91 in1012.9 mb 0.00 in0.0 mm 0.00 in0.0 mm 0.66 in16.8 mm
10:32 PM 74.0°F23.3°C 69.1°F20.6°C 85% Calm Calm -- 29.91 in1012.9 mb 0.00 in0.0 mm 0.00 in0.0 mm 0.66 in16.8 mm
10:37 PM 73.9°F23.3°C 69.0°F20.6°C 85% Calm Calm -- 29.91 in1012.9 mb 0.00 in0.0 mm 0.00 in0.0 mm 0.66 in16.8 mm
10:42 PM 73.8°F23.2°C 69.2°F20.7°C 86% Calm Calm -- 29.91 in1012.9 mb 0.00 in0.0 mm 0.00 in0.0 mm 0.66 in16.8 mm
10:47 PM 73.8°F23.2°C 69.2°F20.7°C 86% Calm Calm -- 29.91 in1012.9 mb 0.00 in0.0 mm 0.00 in0.0 mm 0.66 in16.8 mm
10:52 PM 73.5°F23.1°C 68.9°F20.5°C 86% Calm Calm -- 29.91 in1012.9 mb 0.00 in0.0 mm 0.00 in0.0 mm 0.66 in16.8 mm
10:57 PM 73.6°F23.1°C 69.0°F20.6°C 86% Calm Calm -- 29.91 in1012.9 mb 0.00 in0.0 mm 0.00 in0.0 mm 0.66 in16.8 mm
11:02 PM 73.4°F23.0°C 68.8°F20.4°C 86% Calm Calm -- 29.91 in1012.9 mb 0.00 in0.0 mm 0.00 in0.0 mm 0.66 in16.8 mm
11:07 PM 73.1°F22.8°C 68.6°F20.3°C 86% Calm Calm -- 29.91 in1012.9 mb 0.00 in0.0 mm 0.00 in0.0 mm 0.66 in16.8 mm
11:12 PM 73.1°F22.8°C 68.6°F20.3°C 86% Calm Calm -- 29.91 in1012.9 mb 0.00 in0.0 mm 0.00 in0.0 mm 0.66 in16.8 mm
11:17 PM 73.2°F22.9°C 68.7°F20.4°C 86% Calm Calm -- 29.91 in1012.9 mb 0.00 in0.0 mm 0.00 in0.0 mm 0.66 in16.8 mm
11:22 PM 73.1°F22.8°C 68.6°F20.3°C 86% Calm Calm -- 29.91 in1012.9 mb 0.00 in0.0 mm 0.00 in0.0 mm 0.66 in16.8 mm
11:27 PM 73.1°F22.8°C 68.6°F20.3°C 86% Calm Calm -- 29.90 in1012.5 mb 0.00 in0.0 mm 0.00 in0.0 mm 0.66 in16.8 mm
11:32 PM 73.2°F22.9°C 68.7°F20.4°C 86% Calm Calm -- 29.90 in1012.5 mb 0.00 in0.0 mm 0.00 in0.0 mm 0.66 in16.8 mm
11:37 PM 73.3°F22.9°C 68.7°F20.4°C 86% Calm Calm -- 29.91 in1012.9 mb 0.00 in0.0 mm 0.00 in0.0 mm 0.66 in16.8 mm
11:42 PM 73.6°F23.1°C 69.0°F20.6°C 86% Calm Calm -- 29.91 in1012.9 mb 0.00 in0.0 mm 0.00 in0.0 mm 0.66 in16.8 mm
11:47 PM 73.6°F23.1°C 68.7°F20.4°C 85% Calm Calm -- 29.91 in1012.9 mb 0.00 in0.0 mm 0.00 in0.0 mm 0.66 in16.8 mm
11:52 PM 73.6°F23.1°C 68.7°F20.4°C 85% Calm Calm -- 29.91 in1012.9 mb 0.00 in0.0 mm 0.00 in0.0 mm 0.66 in16.8 mm
11:57 PM 73.6°F23.1°C 68.7°F20.4°C 85% Calm Calm -- 29.91 in1012.9 mb 0.00 in0.0 mm 0.00 in0.0 mm 0.66 in16.8 mm